createdAt,value
2019-05-19T00:01:54.953Z,13.10
2019-05-19T00:04:21.253Z,13.00
2019-05-19T00:06:47.355Z,13.00
2019-05-19T00:09:16.486Z,13.00
2019-05-19T00:11:41.550Z,13.00
2019-05-19T00:14:07.670Z,13.20
2019-05-19T00:16:33.906Z,13.20
2019-05-19T00:18:59.988Z,13.10
2019-05-19T00:21:26.180Z,13.20
2019-05-19T00:23:52.252Z,13.20
2019-05-19T00:26:18.582Z,13.10
2019-05-19T00:28:44.653Z,12.90
2019-05-19T00:31:10.924Z,12.70
2019-05-19T00:33:37.140Z,12.60
2019-05-19T00:36:03.426Z,12.40
2019-05-19T00:38:29.544Z,12.30
2019-05-19T00:40:55.608Z,12.30
2019-05-19T00:43:21.814Z,12.20
2019-05-19T00:45:47.940Z,12.10
2019-05-19T00:48:14.145Z,12.00
2019-05-19T00:50:40.376Z,12.00
2019-05-19T00:53:06.707Z,12.20
2019-05-19T00:55:33.093Z,12.10
2019-05-19T00:58:00.937Z,12.00
2019-05-19T01:00:27.096Z,11.90
2019-05-19T01:02:53.214Z,11.80
2019-05-19T01:05:20.840Z,11.90
2019-05-19T01:07:47.244Z,11.80
2019-05-19T01:10:13.950Z,11.80
2019-05-19T01:12:40.073Z,11.70
2019-05-19T01:15:07.321Z,11.60
2019-05-19T01:17:33.550Z,11.70
2019-05-19T01:19:59.879Z,11.70
2019-05-19T01:22:26.053Z,11.70
2019-05-19T01:24:52.157Z,11.60
2019-05-19T01:27:18.269Z,11.50
2019-05-19T01:29:44.485Z,11.70
2019-05-19T01:32:10.577Z,11.80
2019-05-19T01:34:36.664Z,11.90
2019-05-19T01:37:02.868Z,11.70
2019-05-19T01:39:29.006Z,11.60
2019-05-19T01:41:55.349Z,11.60
2019-05-19T01:44:21.469Z,11.50
2019-05-19T01:46:47.583Z,11.70
2019-05-19T01:49:13.693Z,11.60
2019-05-19T01:51:39.826Z,11.50
2019-05-19T01:54:06.065Z,11.40
2019-05-19T01:56:32.320Z,11.20
2019-05-19T01:58:58.543Z,11.10
2019-05-19T02:01:24.647Z,11.00
2019-05-19T02:03:50.737Z,11.00
2019-05-19T02:06:16.865Z,11.20
2019-05-19T02:08:42.948Z,11.20
2019-05-19T02:11:09.049Z,11.10
2019-05-19T02:13:35.185Z,10.90
2019-05-19T02:16:01.389Z,10.90
2019-05-19T02:18:27.499Z,10.90
2019-05-19T02:20:53.743Z,10.80
2019-05-19T02:23:20.085Z,10.80
2019-05-19T02:25:46.234Z,10.90
2019-05-19T02:28:12.403Z,10.90
2019-05-19T02:30:38.577Z,10.90
2019-05-19T02:33:04.859Z,11.00
2019-05-19T02:35:31.463Z,10.80
2019-05-19T02:37:57.681Z,10.90
2019-05-19T02:40:24.114Z,10.90
2019-05-19T02:42:53.405Z,10.90
2019-05-19T02:45:19.735Z,10.90
2019-05-19T02:47:48.500Z,11.00
2019-05-19T02:50:14.747Z,10.90
2019-05-19T02:52:42.762Z,10.80
2019-05-19T02:55:08.958Z,10.70
2019-05-19T02:57:36.247Z,10.80
2019-05-19T03:00:06.075Z,10.90
2019-05-19T03:02:32.548Z,10.90
2019-05-19T03:04:58.689Z,10.90
2019-05-19T03:07:24.885Z,10.80
2019-05-19T03:09:51.060Z,10.70
2019-05-19T03:12:17.296Z,10.90
2019-05-19T03:14:43.360Z,10.90
2019-05-19T03:17:09.499Z,10.90
2019-05-19T03:19:35.714Z,10.90
2019-05-19T03:22:01.816Z,10.90
2019-05-19T03:24:27.927Z,10.90
2019-05-19T03:26:54.013Z,10.70
2019-05-19T03:29:22.002Z,10.50
2019-05-19T03:31:56.045Z,10.40
2019-05-19T03:34:24.013Z,10.60
2019-05-19T03:36:50.159Z,10.70
2019-05-19T03:39:16.351Z,10.60
2019-05-19T03:41:42.439Z,10.60
2019-05-19T03:44:08.564Z,10.50
2019-05-19T03:46:34.641Z,10.40
2019-05-19T03:49:00.729Z,10.50
2019-05-19T03:51:31.422Z,10.50
2019-05-19T03:53:54.802Z,10.50
2019-05-19T03:56:20.920Z,10.50
2019-05-19T03:58:47.248Z,10.70
2019-05-19T04:01:13.379Z,10.50
2019-05-19T04:03:39.497Z,10.60
2019-05-19T04:06:05.689Z,10.50
2019-05-19T04:08:31.912Z,10.40
2019-05-19T04:10:58.067Z,10.40
2019-05-19T04:13:24.218Z,10.30
2019-05-19T04:15:50.343Z,10.40
2019-05-19T04:18:16.559Z,10.50
2019-05-19T04:20:42.868Z,10.60
2019-05-19T04:23:09.138Z,10.70
2019-05-19T04:25:35.272Z,10.70
2019-05-19T04:28:01.396Z,10.80
2019-05-19T04:30:27.537Z,11.00
2019-05-19T04:32:53.665Z,11.00
2019-05-19T04:35:19.765Z,11.10
2019-05-19T04:37:45.880Z,11.10
2019-05-19T04:40:12.459Z,11.10
2019-05-19T04:42:38.566Z,11.20
2019-05-19T04:45:05.435Z,11.20
2019-05-19T04:47:31.610Z,11.30
2019-05-19T04:49:57.780Z,11.10
2019-05-19T04:52:23.857Z,11.10
2019-05-19T04:54:49.932Z,11.20
2019-05-19T04:57:16.022Z,11.10
2019-05-19T04:59:42.113Z,11.20
2019-05-19T05:02:08.272Z,11.20
2019-05-19T05:04:34.383Z,11.30
2019-05-19T05:07:00.512Z,11.30
2019-05-19T05:09:26.678Z,11.40
2019-05-19T05:11:53.034Z,11.40
2019-05-19T05:14:19.148Z,11.50
2019-05-19T05:16:45.330Z,11.60
2019-05-19T05:19:11.424Z,11.80
2019-05-19T05:21:37.576Z,12.00
2019-05-19T05:24:03.771Z,12.10
2019-05-19T05:26:30.374Z,12.30
2019-05-19T05:28:56.568Z,12.50
2019-05-19T05:31:22.734Z,12.70
2019-05-19T05:33:48.973Z,12.90
2019-05-19T05:36:15.348Z,13.20
2019-05-19T05:38:41.557Z,13.40
2019-05-19T05:41:07.712Z,13.50
2019-05-19T05:43:33.963Z,13.60
2019-05-19T05:46:03.384Z,13.80
2019-05-19T05:48:29.489Z,14.00
2019-05-19T05:50:56.292Z,14.10
2019-05-19T05:53:22.490Z,14.20
2019-05-19T05:55:48.545Z,14.30
2019-05-19T05:58:15.512Z,14.50
2019-05-19T06:00:41.637Z,14.70
2019-05-19T06:03:07.774Z,14.80
2019-05-19T06:05:33.884Z,14.90
2019-05-19T06:07:59.973Z,15.10
2019-05-19T06:10:26.099Z,15.30
2019-05-19T06:12:52.193Z,15.40
2019-05-19T06:15:18.473Z,15.30
2019-05-19T06:17:44.652Z,15.40
2019-05-19T06:20:11.165Z,15.50
2019-05-19T06:22:37.371Z,15.70
2019-05-19T06:25:04.072Z,15.80
2019-05-19T06:27:30.154Z,16.00
2019-05-19T06:29:56.294Z,16.00
2019-05-19T06:32:24.372Z,16.00
2019-05-19T06:34:50.465Z,16.50
2019-05-19T06:37:16.641Z,16.60
2019-05-19T06:39:42.736Z,16.70
2019-05-19T06:42:08.918Z,16.60
2019-05-19T06:44:35.053Z,16.60
2019-05-19T06:47:01.145Z,16.80
2019-05-19T06:49:27.250Z,16.80
2019-05-19T06:51:53.396Z,16.80
2019-05-19T06:54:19.558Z,17.00
2019-05-19T06:56:45.988Z,17.00
2019-05-19T06:59:12.103Z,17.20
2019-05-19T07:01:38.361Z,17.40
2019-05-19T07:04:04.684Z,17.70
2019-05-19T07:06:33.739Z,17.70
2019-05-19T07:08:58.812Z,17.70
2019-05-19T07:11:24.901Z,18.00
2019-05-19T07:13:51.052Z,18.00
2019-05-19T07:16:17.270Z,18.20
2019-05-19T07:18:43.427Z,18.30
2019-05-19T07:21:09.500Z,18.30
2019-05-19T07:23:35.611Z,18.40
2019-05-19T07:26:01.830Z,18.70
2019-05-19T07:28:28.016Z,18.80
2019-05-19T07:30:54.310Z,18.70
2019-05-19T07:33:20.494Z,18.40
2019-05-19T07:35:46.610Z,18.20
2019-05-19T07:38:12.749Z,18.30
2019-05-19T07:40:38.917Z,18.40
2019-05-19T07:43:04.998Z,18.30
2019-05-19T07:45:31.179Z,18.40
2019-05-19T07:47:57.352Z,18.30
2019-05-19T07:50:23.471Z,18.40
2019-05-19T07:52:49.704Z,18.40
2019-05-19T07:55:15.825Z,18.40
2019-05-19T07:57:41.965Z,18.30
2019-05-19T08:00:08.687Z,18.20
2019-05-19T08:02:35.231Z,18.10
2019-05-19T08:05:01.912Z,18.00
2019-05-19T08:07:28.131Z,17.90
2019-05-19T08:09:54.279Z,17.90
2019-05-19T08:12:20.487Z,17.70
2019-05-19T08:14:46.821Z,17.70
2019-05-19T08:17:12.951Z,17.70
2019-05-19T08:19:39.348Z,17.70
2019-05-19T08:22:05.421Z,17.60
2019-05-19T08:24:31.552Z,17.60
2019-05-19T08:26:57.635Z,17.60
2019-05-19T08:29:23.763Z,17.60
2019-05-19T08:31:49.930Z,17.70
2019-05-19T08:34:16.201Z,17.90
2019-05-19T08:36:42.505Z,18.00
2019-05-19T08:39:08.779Z,18.40
2019-05-19T08:41:34.883Z,18.90
2019-05-19T08:44:02.213Z,19.20
2019-05-19T08:46:28.396Z,19.60
2019-05-19T08:48:54.517Z,19.90
2019-05-19T08:51:20.652Z,19.90
2019-05-19T08:53:46.829Z,19.90
2019-05-19T08:56:12.925Z,20.00
2019-05-19T08:58:38.992Z,20.20
2019-05-19T09:01:05.096Z,20.20
2019-05-19T09:03:31.174Z,20.60
2019-05-19T09:05:57.323Z,20.50
2019-05-19T09:08:23.579Z,20.60
2019-05-19T09:10:49.894Z,20.80
2019-05-19T09:13:16.123Z,20.90
2019-05-19T09:15:42.333Z,21.10
2019-05-19T09:18:08.692Z,21.20
2019-05-19T09:20:34.877Z,21.20
2019-05-19T09:23:00.952Z,21.30
2019-05-19T09:25:27.142Z,21.20
2019-05-19T09:27:53.288Z,21.20
2019-05-19T09:30:19.690Z,21.40
2019-05-19T09:32:45.768Z,21.70
2019-05-19T09:35:12.314Z,21.50
2019-05-19T09:37:38.560Z,21.50
2019-05-19T09:40:06.199Z,21.90
2019-05-19T09:42:32.365Z,21.60
2019-05-19T09:44:58.475Z,21.80
2019-05-19T09:47:24.541Z,22.00
2019-05-19T09:49:50.684Z,22.10
2019-05-19T09:52:17.273Z,22.10
2019-05-19T09:54:45.666Z,22.10
2019-05-19T09:57:11.515Z,22.10
2019-05-19T09:59:37.630Z,22.30
2019-05-19T10:02:03.864Z,22.30
2019-05-19T10:04:30.245Z,22.50
2019-05-19T10:06:56.441Z,22.80
2019-05-19T10:09:30.229Z,22.60
2019-05-19T10:12:06.897Z,22.50
2019-05-19T10:14:33.069Z,22.90
2019-05-19T10:16:59.361Z,22.70
2019-05-19T10:19:25.748Z,22.80
2019-05-19T10:21:52.046Z,23.10
2019-05-19T10:24:18.421Z,23.40
2019-05-19T10:26:44.981Z,23.10
2019-05-19T10:29:11.067Z,23.20
2019-05-19T10:31:37.210Z,23.40
2019-05-19T10:34:03.477Z,23.60
2019-05-19T10:36:29.626Z,23.70
2019-05-19T10:38:55.953Z,23.60
2019-05-19T10:41:22.059Z,23.70
2019-05-19T10:43:50.096Z,23.90
2019-05-19T10:46:16.176Z,24.10
2019-05-19T10:48:42.275Z,24.30
2019-05-19T10:51:08.492Z,24.20
2019-05-19T10:53:34.586Z,24.20
2019-05-19T10:56:00.736Z,24.10
2019-05-19T10:58:26.977Z,24.20
2019-05-19T11:00:53.096Z,24.30
2019-05-19T11:03:20.445Z,24.40
2019-05-19T11:05:46.587Z,24.30
2019-05-19T11:08:12.767Z,24.30
2019-05-19T11:10:38.856Z,24.20
2019-05-19T11:13:04.952Z,24.30
2019-05-19T11:15:31.020Z,24.00
2019-05-19T11:17:57.398Z,23.60
2019-05-19T11:20:23.606Z,23.30
2019-05-19T11:22:50.049Z,23.40
2019-05-19T11:25:16.216Z,23.50
2019-05-19T11:27:42.294Z,23.30
2019-05-19T11:30:08.890Z,23.10
2019-05-19T11:32:35.007Z,23.00
2019-05-19T11:35:01.122Z,23.20
2019-05-19T11:37:27.200Z,23.60
2019-05-19T11:39:53.319Z,23.60
2019-05-19T11:42:19.383Z,23.50
2019-05-19T11:44:45.479Z,23.20
2019-05-19T11:47:11.962Z,23.20
2019-05-19T11:49:38.897Z,23.50
2019-05-19T11:52:08.715Z,23.90
2019-05-19T11:54:35.548Z,24.30
2019-05-19T11:57:02.825Z,24.60
2019-05-19T11:59:29.465Z,25.00
2019-05-19T12:01:55.700Z,25.10
2019-05-19T12:04:22.254Z,25.50
2019-05-19T12:06:48.474Z,25.30
2019-05-19T12:09:14.654Z,25.30
2019-05-19T12:11:40.759Z,25.60
2019-05-19T12:14:06.878Z,25.60
2019-05-19T12:16:33.001Z,25.70
2019-05-19T12:18:59.403Z,25.80
2019-05-19T12:21:25.534Z,25.90
2019-05-19T12:23:51.618Z,25.50
2019-05-19T12:26:23.202Z,25.20
2019-05-19T12:28:45.807Z,24.80
2019-05-19T12:31:11.964Z,24.10
2019-05-19T12:33:51.008Z,23.70
2019-05-19T12:36:06.471Z,23.60
2019-05-19T12:38:32.671Z,23.70
2019-05-19T12:40:58.981Z,23.60
2019-05-19T12:43:25.116Z,23.50
2019-05-19T12:45:51.332Z,23.50
2019-05-19T12:48:18.129Z,23.40
2019-05-19T12:50:44.234Z,23.40
2019-05-19T12:53:10.427Z,23.10
2019-05-19T12:55:36.517Z,23.00
2019-05-19T12:58:02.659Z,22.90
2019-05-19T13:00:29.096Z,22.70
2019-05-19T13:02:55.281Z,22.70
2019-05-19T13:05:21.385Z,23.00
2019-05-19T13:07:47.450Z,23.20
2019-05-19T13:10:14.181Z,23.10
2019-05-19T13:12:40.371Z,23.00
2019-05-19T13:15:07.097Z,23.10
2019-05-19T13:17:33.265Z,23.10
2019-05-19T13:19:59.465Z,23.10
2019-05-19T13:22:25.664Z,22.90
2019-05-19T13:24:51.782Z,23.00
2019-05-19T13:27:17.931Z,23.10
2019-05-19T13:29:44.141Z,23.00
2019-05-19T13:32:10.387Z,22.90
2019-05-19T13:34:36.613Z,22.90
2019-05-19T13:37:02.919Z,22.80
2019-05-19T13:39:28.987Z,22.90
2019-05-19T13:41:55.081Z,22.90
2019-05-19T13:44:21.175Z,23.10
2019-05-19T13:46:47.321Z,23.40
2019-05-19T13:49:13.546Z,23.80
2019-05-19T13:51:39.653Z,24.20
2019-05-19T13:54:05.782Z,24.30
2019-05-19T13:56:31.867Z,24.80
2019-05-19T13:58:58.163Z,25.00
2019-05-19T14:01:28.699Z,25.20
2019-05-19T14:03:52.383Z,25.50
2019-05-19T14:06:18.802Z,25.40
2019-05-19T14:08:45.097Z,25.10
2019-05-19T14:11:11.197Z,24.80
2019-05-19T14:13:37.303Z,24.50
2019-05-19T14:16:03.428Z,24.20
2019-05-19T14:18:29.672Z,24.10
2019-05-19T14:20:55.817Z,23.70
2019-05-19T14:23:22.023Z,23.90
2019-05-19T14:25:48.228Z,24.00
2019-05-19T14:28:14.364Z,24.10
2019-05-19T14:30:40.589Z,24.60
2019-05-19T14:33:06.667Z,25.00
2019-05-19T14:35:32.965Z,25.30
2019-05-19T14:37:59.199Z,25.50
2019-05-19T14:40:25.347Z,25.80
2019-05-19T14:42:53.397Z,26.10
2019-05-19T14:45:19.877Z,26.30
2019-05-19T14:47:46.305Z,26.30
2019-05-19T14:50:14.209Z,26.20
2019-05-19T14:52:40.425Z,26.30
2019-05-19T14:55:06.836Z,25.90
2019-05-19T14:57:44.266Z,26.00
2019-05-19T15:00:01.360Z,26.00
2019-05-19T15:02:27.541Z,25.70
2019-05-19T15:04:53.725Z,25.60
2019-05-19T15:07:19.843Z,25.50
2019-05-19T15:09:46.019Z,25.50
2019-05-19T15:12:12.093Z,25.10
2019-05-19T15:14:38.725Z,25.20
2019-05-19T15:17:05.143Z,25.10
2019-05-19T15:19:31.640Z,25.10
2019-05-19T15:21:57.824Z,25.00
2019-05-19T15:24:24.005Z,24.90
2019-05-19T15:26:50.109Z,25.00
2019-05-19T15:29:16.213Z,24.80
2019-05-19T15:31:42.388Z,24.70
2019-05-19T15:34:08.555Z,24.70
2019-05-19T15:36:34.737Z,24.30
2019-05-19T15:39:00.892Z,24.40
2019-05-19T15:41:27.162Z,24.40
2019-05-19T15:43:53.520Z,24.30
2019-05-19T15:46:19.784Z,24.20
2019-05-19T15:48:46.078Z,24.20
2019-05-19T15:51:12.198Z,24.20
2019-05-19T15:53:38.317Z,24.20
2019-05-19T15:56:04.405Z,24.20
2019-05-19T15:58:30.494Z,24.20
2019-05-19T16:00:56.621Z,24.20
2019-05-19T16:03:22.821Z,24.20
2019-05-19T16:05:48.944Z,24.20
2019-05-19T16:08:15.234Z,24.10
2019-05-19T16:10:41.562Z,24.00
2019-05-19T16:13:07.705Z,23.90
2019-05-19T16:15:33.922Z,23.90
2019-05-19T16:18:00.062Z,24.00
2019-05-19T16:20:26.149Z,24.10
2019-05-19T16:22:52.262Z,24.00
2019-05-19T16:25:18.400Z,24.20
2019-05-19T16:27:44.739Z,24.10
2019-05-19T16:30:11.115Z,24.00
2019-05-19T16:32:37.552Z,23.80
2019-05-19T16:35:06.002Z,23.70
2019-05-19T16:37:32.169Z,23.80
2019-05-19T16:39:58.353Z,23.70
2019-05-19T16:42:24.492Z,23.80
2019-05-19T16:44:50.669Z,23.70
2019-05-19T16:47:16.791Z,23.70
2019-05-19T16:49:43.044Z,23.50
2019-05-19T16:52:09.288Z,23.30
2019-05-19T16:54:37.311Z,23.10
2019-05-19T16:57:03.438Z,23.00
2019-05-19T16:59:29.671Z,22.80
2019-05-19T17:01:55.748Z,22.60
2019-05-19T17:04:21.845Z,22.50
2019-05-19T17:06:47.918Z,22.50
2019-05-19T17:09:15.075Z,22.40
2019-05-19T17:11:43.937Z,22.30
2019-05-19T17:14:10.835Z,22.20
2019-05-19T17:16:37.562Z,22.20
2019-05-19T17:19:03.880Z,22.00
2019-05-19T17:21:30.417Z,21.80
2019-05-19T17:23:57.469Z,21.70
2019-05-19T17:26:24.101Z,20.70
2019-05-19T17:29:00.297Z,20.10
2019-05-19T17:31:18.436Z,19.30
2019-05-19T17:33:44.583Z,19.00
2019-05-19T17:36:12.749Z,18.70
2019-05-19T17:38:38.846Z,18.10
2019-05-19T17:41:05.042Z,17.90
2019-05-19T17:43:31.552Z,17.70
2019-05-19T17:45:57.993Z,17.70
2019-05-19T17:48:27.997Z,17.80
2019-05-19T17:50:56.363Z,18.00
2019-05-19T17:53:22.712Z,18.10
2019-05-19T17:55:51.747Z,18.10
2019-05-19T17:58:18.654Z,18.00
2019-05-19T18:00:47.382Z,18.00
2019-05-19T18:03:13.462Z,17.80
2019-05-19T18:05:39.946Z,17.60
2019-05-19T18:08:06.978Z,17.40
2019-05-19T18:10:33.255Z,17.40
2019-05-19T18:12:59.808Z,17.10
2019-05-19T18:15:26.785Z,17.00
2019-05-19T18:17:52.967Z,17.20
2019-05-19T18:20:23.686Z,17.10
2019-05-19T18:22:51.639Z,17.20
2019-05-19T18:25:19.437Z,17.40
2019-05-19T18:27:48.101Z,17.30
2019-05-19T18:30:15.387Z,17.00
2019-05-19T18:32:43.994Z,16.90
2019-05-19T18:35:12.976Z,16.80
2019-05-19T18:37:39.865Z,16.80
2019-05-19T18:40:07.356Z,16.70
2019-05-19T18:42:34.243Z,16.60
2019-05-19T18:45:06.134Z,16.70
2019-05-19T18:47:32.291Z,16.70
2019-05-19T18:49:59.484Z,16.70
2019-05-19T18:52:26.340Z,16.50
2019-05-19T18:54:53.674Z,16.40
2019-05-19T18:57:19.773Z,16.40
2019-05-19T18:59:48.346Z,16.60
2019-05-19T19:02:14.962Z,16.80
2019-05-19T19:04:41.974Z,17.10
2019-05-19T19:07:08.791Z,17.20
2019-05-19T19:09:35.639Z,17.00
2019-05-19T19:12:04.221Z,16.80
2019-05-19T19:14:30.384Z,16.70
2019-05-19T19:16:57.104Z,16.80
2019-05-19T19:19:23.285Z,16.80
2019-05-19T19:21:49.374Z,16.40
2019-05-19T19:24:15.571Z,16.40
2019-05-19T19:26:41.745Z,16.40
2019-05-19T19:29:07.957Z,16.50
2019-05-19T19:31:47.807Z,16.30
2019-05-19T19:34:02.273Z,16.40
2019-05-19T19:36:28.539Z,16.40
2019-05-19T19:38:54.705Z,16.40
2019-05-19T19:41:20.807Z,16.40
2019-05-19T19:43:46.943Z,16.40
2019-05-19T19:46:13.180Z,16.40
2019-05-19T19:48:39.422Z,16.40
2019-05-19T19:51:05.502Z,16.40
2019-05-19T19:53:31.681Z,16.30
2019-05-19T19:55:57.855Z,16.30
2019-05-19T19:58:23.994Z,16.20
2019-05-19T20:00:50.420Z,16.10
2019-05-19T20:03:16.959Z,16.10
2019-05-19T20:05:43.171Z,16.00
2019-05-19T20:08:09.524Z,15.90
2019-05-19T20:10:36.015Z,15.80
2019-05-19T20:13:02.254Z,15.70
2019-05-19T20:15:28.343Z,15.70
2019-05-19T20:17:54.491Z,15.70
2019-05-19T20:20:20.601Z,15.60
2019-05-19T20:22:46.728Z,15.60
2019-05-19T20:25:12.990Z,15.70
2019-05-19T20:27:39.366Z,15.70
2019-05-19T20:30:05.973Z,15.60
2019-05-19T20:32:32.105Z,15.50
2019-05-19T20:34:58.353Z,15.50
2019-05-19T20:37:24.584Z,15.40
2019-05-19T20:39:50.771Z,15.50
2019-05-19T20:42:16.885Z,15.50
2019-05-19T20:44:42.999Z,15.50
2019-05-19T20:47:09.088Z,15.70
2019-05-19T20:49:35.308Z,15.70
2019-05-19T20:52:02.418Z,15.60
2019-05-19T20:54:28.485Z,15.70
2019-05-19T20:56:54.772Z,15.70
2019-05-19T20:59:20.946Z,15.70
2019-05-19T21:01:47.094Z,15.60
2019-05-19T21:04:13.311Z,15.50
2019-05-19T21:06:39.483Z,15.30
2019-05-19T21:09:05.606Z,15.10
2019-05-19T21:11:31.693Z,15.10
2019-05-19T21:13:57.772Z,15.20
2019-05-19T21:16:23.895Z,15.00
2019-05-19T21:18:50.033Z,15.00
2019-05-19T21:21:16.145Z,15.30
2019-05-19T21:23:42.334Z,15.10
2019-05-19T21:26:08.428Z,15.00
2019-05-19T21:28:34.520Z,15.00
2019-05-19T21:31:05.869Z,14.90
2019-05-19T21:33:28.766Z,14.90
2019-05-19T21:35:54.882Z,14.90
2019-05-19T21:38:21.080Z,14.90
2019-05-19T21:40:47.269Z,14.90
2019-05-19T21:43:13.405Z,15.00
2019-05-19T21:45:39.796Z,14.80
2019-05-19T21:48:05.887Z,14.70
2019-05-19T21:50:32.003Z,14.60
2019-05-19T21:52:58.134Z,14.60
2019-05-19T21:55:24.206Z,14.50
2019-05-19T21:57:50.348Z,14.30
2019-05-19T22:00:17.606Z,14.20
2019-05-19T22:02:43.813Z,14.20
2019-05-19T22:05:10.723Z,14.10
2019-05-19T22:07:41.501Z,14.00
2019-05-19T22:10:07.832Z,14.10
2019-05-19T22:12:33.947Z,14.00
2019-05-19T22:15:00.126Z,14.00
2019-05-19T22:17:26.224Z,14.20
2019-05-19T22:19:52.369Z,14.30
2019-05-19T22:22:18.549Z,14.30
2019-05-19T22:24:44.614Z,14.40
2019-05-19T22:27:10.732Z,14.50
2019-05-19T22:29:36.798Z,14.60
2019-05-19T22:32:02.896Z,14.70
2019-05-19T22:34:29.086Z,14.50
2019-05-19T22:36:55.240Z,14.50
2019-05-19T22:39:21.456Z,14.50
2019-05-19T22:41:47.670Z,14.50
2019-05-19T22:44:13.786Z,14.30
2019-05-19T22:46:39.872Z,14.40
2019-05-19T22:49:06.227Z,14.30
2019-05-19T22:51:32.474Z,14.40
2019-05-19T22:53:58.575Z,14.40
2019-05-19T22:56:24.651Z,14.40
2019-05-19T22:58:50.771Z,14.20
2019-05-19T23:01:16.926Z,14.10
2019-05-19T23:03:43.376Z,14.00
2019-05-19T23:06:09.561Z,13.90
2019-05-19T23:08:35.855Z,13.90
2019-05-19T23:11:02.086Z,14.00
2019-05-19T23:13:28.304Z,14.10
2019-05-19T23:15:54.498Z,14.00
2019-05-19T23:18:20.595Z,14.00
2019-05-19T23:20:46.810Z,14.10
2019-05-19T23:23:13.027Z,13.90
2019-05-19T23:25:39.137Z,13.90
2019-05-19T23:28:05.274Z,13.90
2019-05-19T23:30:31.492Z,13.80
2019-05-19T23:32:57.689Z,13.90
2019-05-19T23:35:24.020Z,13.80
2019-05-19T23:37:50.286Z,13.80
2019-05-19T23:40:16.586Z,13.60
2019-05-19T23:42:42.812Z,13.70
2019-05-19T23:45:09.708Z,13.70
2019-05-19T23:47:35.832Z,13.80
2019-05-19T23:50:03.785Z,13.70
2019-05-19T23:52:30.007Z,13.80
2019-05-19T23:54:56.153Z,13.70
2019-05-19T23:57:22.235Z,13.70
2019-05-19T23:59:48.333Z,13.80
